createdAt,value
2023-03-12T00:01:16.103Z,22.63
2023-03-12T00:03:42.692Z,20.33
2023-03-12T00:06:10.998Z,12.77
2023-03-12T00:08:38.058Z,9.40
2023-03-12T00:11:08.526Z,18.53
2023-03-12T00:13:35.690Z,53.07
2023-03-12T00:16:06.742Z,34.40
2023-03-12T00:18:33.346Z,6.70
2023-03-12T00:21:00.289Z,9.53
2023-03-12T00:23:27.173Z,6.83
2023-03-12T00:25:53.640Z,6.83
2023-03-12T00:28:20.163Z,8.33
2023-03-12T00:30:46.799Z,11.87
2023-03-12T00:33:13.628Z,11.10
2023-03-12T00:35:40.405Z,4.90
2023-03-12T00:38:06.941Z,9.83
2023-03-12T00:40:33.553Z,5.30
2023-03-12T00:43:00.654Z,9.37
2023-03-12T00:45:27.325Z,8.93
2023-03-12T00:47:54.203Z,13.83
2023-03-12T00:50:20.930Z,22.93
2023-03-12T00:52:47.516Z,12.33
2023-03-12T00:55:14.081Z,10.33
2023-03-12T00:57:40.669Z,7.33
2023-03-12T01:00:10.781Z,12.53
2023-03-12T01:02:37.972Z,12.60
2023-03-12T01:05:05.587Z,6.90
2023-03-12T01:07:32.379Z,9.53
2023-03-12T01:09:59.386Z,5.83
2023-03-12T01:12:25.909Z,7.13
2023-03-12T01:14:52.558Z,9.40
2023-03-12T01:17:19.320Z,7.00
2023-03-12T01:19:45.795Z,11.40
2023-03-12T01:22:12.327Z,9.73
2023-03-12T01:24:39.521Z,9.17
2023-03-12T01:27:06.073Z,16.50
2023-03-12T01:29:32.813Z,5.80
2023-03-12T01:31:59.290Z,7.60
2023-03-12T01:34:25.802Z,9.60
2023-03-12T01:36:52.414Z,8.27
2023-03-12T01:39:19.083Z,13.37
2023-03-12T01:41:46.014Z,13.70
2023-03-12T01:44:15.718Z,11.03
2023-03-12T01:46:43.312Z,15.03
2023-03-12T01:49:19.372Z,10.23
2023-03-12T01:51:49.106Z,4.87
2023-03-12T01:54:18.485Z,9.80
2023-03-12T01:56:45.830Z,14.00
2023-03-12T01:59:15.711Z,9.80
2023-03-12T02:01:43.086Z,15.80
2023-03-12T02:04:11.029Z,74.10
2023-03-12T02:06:43.954Z,15.63
2023-03-12T02:09:12.611Z,10.50
2023-03-12T02:11:39.267Z,11.90
2023-03-12T02:14:06.018Z,11.00
2023-03-12T02:16:32.679Z,14.13
2023-03-12T02:19:01.563Z,9.03
2023-03-12T02:21:29.421Z,9.13
2023-03-12T02:24:00.956Z,8.70
2023-03-12T02:26:29.812Z,28.60
2023-03-12T02:28:59.237Z,15.43
2023-03-12T02:31:28.527Z,6.23
2023-03-12T02:33:56.049Z,19.47
2023-03-12T02:36:22.565Z,11.00
2023-03-12T02:38:50.568Z,15.13
2023-03-12T02:41:22.073Z,14.33
2023-03-12T02:44:00.530Z,10.90
2023-03-12T02:46:27.304Z,11.80
2023-03-12T02:48:55.264Z,15.20
2023-03-12T02:51:22.024Z,27.42
2023-03-12T02:53:54.852Z,14.40
2023-03-12T02:56:22.830Z,13.73
2023-03-12T02:58:49.465Z,10.80
2023-03-12T03:01:16.654Z,13.68
2023-03-12T03:03:43.751Z,8.05
2023-03-12T03:06:10.510Z,5.90
2023-03-12T03:08:37.234Z,6.17
2023-03-12T03:11:03.862Z,5.53
2023-03-12T03:13:30.693Z,8.90
2023-03-12T03:15:59.595Z,8.85
2023-03-12T03:18:26.292Z,10.80
2023-03-12T03:21:00.750Z,10.20
2023-03-12T03:23:27.740Z,9.07
2023-03-12T03:25:56.100Z,18.33
2023-03-12T03:28:23.684Z,6.95
2023-03-12T03:30:52.710Z,7.78
2023-03-12T03:33:19.422Z,10.30
2023-03-12T03:35:46.076Z,7.00
2023-03-12T03:38:12.713Z,9.17
2023-03-12T03:40:39.660Z,11.53
2023-03-12T03:43:06.202Z,10.25
2023-03-12T03:45:32.921Z,6.47
2023-03-12T03:47:59.602Z,11.73
2023-03-12T03:50:26.318Z,8.83
2023-03-12T03:52:52.944Z,6.47
2023-03-12T03:55:19.821Z,10.20
2023-03-12T03:57:46.419Z,15.97
2023-03-12T04:00:13.446Z,13.35
2023-03-12T04:02:44.677Z,7.83
2023-03-12T04:05:12.998Z,12.40
2023-03-12T04:07:39.855Z,5.60
2023-03-12T04:10:06.849Z,10.50
2023-03-12T04:12:33.840Z,9.57
2023-03-12T04:15:00.535Z,7.43
2023-03-12T04:17:27.185Z,6.07
2023-03-12T04:19:53.932Z,11.10
2023-03-12T04:22:20.402Z,8.37
2023-03-12T04:24:46.990Z,5.30
2023-03-12T04:27:13.588Z,7.23
2023-03-12T04:29:42.492Z,3.77
2023-03-12T04:32:09.667Z,12.70
2023-03-12T04:34:36.727Z,8.53
2023-03-12T04:37:03.494Z,15.27
2023-03-12T04:39:30.506Z,4.03
2023-03-12T04:41:57.475Z,6.20
2023-03-12T04:44:25.465Z,5.13
2023-03-12T04:46:52.589Z,10.13
2023-03-12T04:49:22.559Z,4.40
2023-03-12T04:51:49.123Z,3.23
2023-03-12T04:54:15.667Z,1.47
2023-03-12T04:56:42.876Z,6.33
2023-03-12T04:59:09.428Z,3.33
2023-03-12T05:01:36.749Z,18.30
2023-03-12T05:04:07.898Z,4.23
2023-03-12T05:06:34.605Z,8.33
2023-03-12T05:09:01.744Z,8.20
2023-03-12T05:11:28.937Z,5.80
2023-03-12T05:13:55.513Z,14.53
2023-03-12T05:16:23.533Z,7.27
2023-03-12T05:18:50.146Z,6.00
2023-03-12T05:21:18.489Z,8.83
2023-03-12T05:23:46.514Z,6.95
2023-03-12T05:26:21.870Z,13.50
2023-03-12T05:28:49.004Z,7.15
2023-03-12T05:31:16.974Z,7.57
2023-03-12T05:33:44.722Z,10.40
2023-03-12T05:36:11.705Z,3.27
2023-03-12T05:38:38.908Z,5.83
2023-03-12T05:41:06.513Z,17.27
2023-03-12T05:43:36.185Z,11.50
2023-03-12T05:46:04.021Z,7.73
2023-03-12T05:48:31.708Z,9.17
2023-03-12T05:50:58.223Z,5.47
2023-03-12T05:53:25.001Z,6.03
2023-03-12T05:55:52.812Z,3.50
2023-03-12T05:58:19.582Z,6.13
2023-03-12T06:00:46.136Z,3.73
2023-03-12T06:03:13.744Z,4.95
2023-03-12T06:05:41.413Z,3.97
2023-03-12T06:08:07.878Z,14.23
2023-03-12T06:10:34.612Z,9.63
2023-03-12T06:13:01.457Z,6.73
2023-03-12T06:15:28.187Z,5.45
2023-03-12T06:17:54.764Z,7.73
2023-03-12T06:20:22.999Z,14.40
2023-03-12T06:22:50.048Z,7.40
2023-03-12T06:25:16.640Z,7.63
2023-03-12T06:27:43.255Z,7.53
2023-03-12T06:30:10.057Z,4.30
2023-03-12T06:32:36.721Z,5.10
2023-03-12T06:35:04.736Z,10.87
2023-03-12T06:37:31.383Z,6.90
2023-03-12T06:39:57.967Z,14.20
2023-03-12T06:42:26.468Z,7.57
2023-03-12T06:44:53.791Z,5.87
2023-03-12T06:47:20.573Z,8.90
2023-03-12T06:49:47.128Z,20.43
2023-03-12T06:52:13.649Z,4.60
2023-03-12T06:54:40.216Z,9.10
2023-03-12T06:57:06.728Z,6.80
2023-03-12T06:59:33.214Z,7.30
2023-03-12T07:01:59.733Z,8.03
2023-03-12T07:04:26.548Z,9.57
2023-03-12T07:06:53.228Z,8.57
2023-03-12T07:09:20.344Z,7.67
2023-03-12T07:11:46.931Z,5.50
2023-03-12T07:14:13.545Z,12.10
2023-03-12T07:16:40.033Z,17.93
2023-03-12T07:19:06.519Z,9.07
2023-03-12T07:21:33.106Z,16.33
2023-03-12T07:24:00.925Z,10.03
2023-03-12T07:26:27.845Z,10.87
2023-03-12T07:28:54.413Z,7.40
2023-03-12T07:31:20.981Z,7.40
2023-03-12T07:33:47.730Z,8.13
2023-03-12T07:36:14.419Z,6.80
2023-03-12T07:38:41.057Z,9.27
2023-03-12T07:41:07.588Z,12.77
2023-03-12T07:43:34.166Z,13.53
2023-03-12T07:46:00.898Z,18.83
2023-03-12T07:48:27.464Z,18.73
2023-03-12T07:50:53.978Z,11.90
2023-03-12T07:53:21.255Z,29.97
2023-03-12T07:55:48.300Z,20.33
2023-03-12T07:58:15.945Z,23.90
2023-03-12T08:00:43.235Z,20.77
2023-03-12T08:03:10.196Z,30.33
2023-03-12T08:05:36.990Z,29.83
2023-03-12T08:08:03.788Z,15.13
2023-03-12T08:10:30.693Z,10.83
2023-03-12T08:12:57.424Z,14.83
2023-03-12T08:15:24.200Z,18.00
2023-03-12T08:17:51.379Z,9.87
2023-03-12T08:20:18.135Z,11.23
2023-03-12T08:22:44.860Z,11.30
2023-03-12T08:25:11.904Z,16.23
2023-03-12T08:27:38.785Z,14.53
2023-03-12T08:30:06.520Z,14.93
2023-03-12T08:32:33.489Z,14.30
2023-03-12T08:35:00.208Z,9.73
2023-03-12T08:37:26.816Z,11.27
2023-03-12T08:39:53.589Z,15.23
2023-03-12T08:42:20.271Z,14.97
2023-03-12T08:44:46.949Z,13.10
2023-03-12T08:47:15.148Z,13.30
2023-03-12T08:49:41.841Z,4.90
2023-03-12T08:52:08.777Z,12.27
2023-03-12T08:54:35.430Z,18.33
2023-03-12T08:57:02.118Z,12.10
2023-03-12T08:59:28.755Z,12.93
2023-03-12T09:01:55.525Z,19.10
2023-03-12T09:04:22.444Z,11.80
2023-03-12T09:06:49.173Z,17.23
2023-03-12T09:09:15.982Z,12.47
2023-03-12T09:11:42.810Z,11.57
2023-03-12T09:16:56.839Z,19.53
2023-03-12T09:19:23.915Z,14.10
2023-03-12T09:21:50.534Z,7.53
2023-03-12T09:24:17.132Z,11.43
2023-03-12T09:26:43.786Z,11.97
2023-03-12T09:29:10.536Z,17.63
2023-03-12T09:31:37.340Z,22.60
2023-03-12T09:34:04.892Z,13.03
2023-03-12T09:36:31.992Z,14.37
2023-03-12T09:38:58.668Z,23.17
2023-03-12T09:41:27.565Z,11.57
2023-03-12T09:43:58.733Z,23.20
2023-03-12T09:46:29.158Z,15.20
2023-03-12T09:48:57.433Z,12.37
2023-03-12T09:51:27.350Z,17.43
2023-03-12T09:53:55.859Z,23.57
2023-03-12T09:56:23.643Z,30.20
2023-03-12T09:58:51.663Z,16.93
2023-03-12T10:01:24.103Z,21.70
2023-03-12T10:03:50.698Z,22.97
2023-03-12T10:06:26.738Z,25.03
2023-03-12T10:08:56.432Z,22.77
2023-03-12T10:11:23.241Z,19.43
2023-03-12T10:13:56.778Z,21.60
2023-03-12T10:16:42.023Z,24.33
2023-03-12T10:19:24.128Z,17.20
2023-03-12T10:21:59.146Z,13.67
2023-03-12T10:24:33.950Z,30.97
2023-03-12T10:27:01.960Z,21.83
2023-03-12T10:29:30.162Z,28.07
2023-03-12T10:31:59.364Z,33.00
2023-03-12T10:34:39.157Z,36.93
2023-03-12T10:37:18.724Z,37.97
2023-03-12T10:39:45.583Z,49.47
2023-03-12T10:42:14.260Z,28.10
2023-03-12T10:44:40.784Z,36.77
2023-03-12T10:47:23.053Z,41.80
2023-03-12T10:49:51.126Z,56.73
2023-03-12T10:52:19.101Z,38.10
2023-03-12T10:54:47.020Z,59.87
2023-03-12T10:57:15.243Z,34.53
2023-03-12T10:59:43.657Z,53.97
2023-03-12T11:02:31.109Z,54.77
2023-03-12T11:04:58.511Z,42.40
2023-03-12T11:07:26.731Z,50.43
2023-03-12T11:10:08.558Z,52.90
2023-03-12T11:12:36.830Z,49.93
2023-03-12T11:15:20.705Z,46.33
2023-03-12T11:17:47.573Z,62.00
2023-03-12T11:20:26.353Z,38.87
2023-03-12T11:22:52.934Z,40.60
2023-03-12T11:25:24.604Z,34.33
2023-03-12T11:27:53.943Z,55.80
2023-03-12T11:30:26.522Z,27.13
2023-03-12T11:32:53.290Z,39.83
2023-03-12T11:35:26.252Z,37.57
2023-03-12T11:37:55.833Z,35.43
2023-03-12T11:40:40.717Z,39.70
2023-03-12T11:43:07.322Z,40.53
2023-03-12T11:45:37.087Z,37.73
2023-03-12T11:48:09.748Z,38.00
2023-03-12T11:50:47.044Z,49.90
2023-03-12T11:53:21.821Z,38.03
2023-03-12T11:56:01.237Z,28.30
2023-03-12T11:58:31.418Z,28.37
2023-03-12T12:01:20.296Z,27.00
2023-03-12T12:03:49.850Z,21.50
2023-03-12T12:06:35.226Z,33.47
2023-03-12T12:09:22.576Z,28.83
2023-03-12T12:12:05.654Z,24.43
2023-03-12T12:14:47.884Z,30.47
2023-03-12T12:17:17.422Z,36.17
2023-03-12T12:19:59.326Z,21.90
2023-03-12T12:22:45.390Z,32.70
2023-03-12T12:25:13.117Z,20.43
2023-03-12T12:28:00.226Z,36.63
2023-03-12T12:30:26.721Z,29.73
2023-03-12T12:33:08.589Z,23.40
2023-03-12T12:35:36.657Z,33.63
2023-03-12T12:38:15.527Z,42.33
2023-03-12T12:40:48.946Z,24.00
2023-03-12T12:43:15.580Z,23.40
2023-03-12T12:45:44.168Z,29.13
2023-03-12T12:48:18.284Z,21.33
2023-03-12T12:50:47.400Z,38.40
2023-03-12T12:53:16.662Z,26.57
2023-03-12T12:55:50.397Z,23.20
2023-03-12T12:58:17.127Z,38.73
2023-03-12T13:00:46.438Z,35.67
2023-03-12T13:03:18.669Z,33.83
2023-03-12T13:05:54.374Z,25.30
2023-03-12T13:08:35.464Z,35.73
2023-03-12T13:11:25.590Z,25.13
2023-03-12T13:14:12.099Z,41.37
2023-03-12T13:16:40.307Z,45.60
2023-03-12T13:19:16.533Z,26.93
2023-03-12T13:21:45.951Z,32.10
2023-03-12T13:24:29.669Z,31.43
2023-03-12T13:27:02.268Z,25.83
2023-03-12T13:29:28.822Z,15.60
2023-03-12T13:31:56.580Z,45.27
2023-03-12T13:34:27.535Z,26.17
2023-03-12T13:37:01.825Z,34.37
2023-03-12T13:39:30.440Z,40.83
2023-03-12T13:41:58.164Z,32.60
2023-03-12T13:44:30.062Z,17.67
2023-03-12T13:47:00.129Z,41.40
2023-03-12T13:55:14.023Z,50.97
2023-03-12T13:57:43.349Z,28.53
2023-03-12T14:00:27.498Z,23.90
2023-03-12T14:02:59.350Z,23.77
2023-03-12T14:05:27.325Z,26.03
2023-03-12T14:08:11.215Z,31.97
2023-03-12T14:10:55.023Z,34.90
2023-03-12T14:13:40.708Z,33.63
2023-03-12T14:16:08.788Z,31.77
2023-03-12T14:18:36.965Z,29.43
2023-03-12T14:21:08.254Z,31.40
2023-03-12T14:23:36.959Z,38.97
2023-03-12T14:26:04.438Z,32.17
2023-03-12T14:28:33.300Z,40.10
2023-03-12T14:31:05.302Z,29.13
2023-03-12T14:33:34.153Z,27.97
2023-03-12T14:36:10.231Z,16.47
2023-03-12T14:38:39.266Z,27.30
2023-03-12T14:41:22.838Z,34.17
2023-03-12T14:43:51.669Z,34.90
2023-03-12T14:46:19.907Z,29.27
2023-03-12T14:48:50.819Z,38.97
2023-03-12T14:51:23.508Z,24.83
2023-03-12T14:53:50.963Z,33.93
2023-03-12T14:56:25.826Z,31.30
2023-03-12T14:58:52.339Z,25.77
2023-03-12T15:01:21.309Z,29.80
2023-03-12T15:03:50.162Z,47.93
2023-03-12T15:06:24.796Z,34.37
2023-03-12T15:08:51.358Z,44.37
2023-03-12T15:11:23.058Z,20.87
2023-03-12T15:13:50.150Z,23.10
2023-03-12T15:16:17.307Z,38.73
2023-03-12T15:18:44.228Z,26.40
2023-03-12T15:21:10.952Z,30.50
2023-03-12T15:23:37.848Z,35.27
2023-03-12T15:26:19.638Z,24.90
2023-03-12T15:29:00.330Z,27.97
2023-03-12T15:31:27.586Z,27.87
2023-03-12T15:34:02.108Z,30.50
2023-03-12T15:36:29.678Z,24.93
2023-03-12T15:39:02.413Z,34.77
2023-03-12T15:41:54.390Z,32.60
2023-03-12T15:44:22.641Z,37.63
2023-03-12T15:46:56.922Z,28.03
2023-03-12T15:49:28.264Z,39.63
2023-03-12T15:51:59.219Z,26.10
2023-03-12T15:54:27.442Z,30.00
2023-03-12T15:56:54.301Z,32.00
2023-03-12T15:59:26.144Z,28.33
2023-03-12T16:01:54.194Z,34.03
2023-03-12T16:04:21.207Z,30.97
2023-03-12T16:06:49.152Z,42.70
2023-03-12T16:09:20.456Z,25.80
2023-03-12T16:11:47.889Z,28.40
2023-03-12T16:14:21.332Z,24.07
2023-03-12T16:16:47.990Z,27.53
2023-03-12T16:19:15.983Z,33.23
2023-03-12T16:21:43.285Z,44.83
2023-03-12T16:24:10.768Z,35.97
2023-03-12T16:26:42.432Z,25.63
2023-03-12T16:29:10.591Z,26.23
2023-03-12T16:31:37.206Z,31.83
2023-03-12T16:34:03.880Z,39.73
2023-03-12T16:36:30.537Z,27.50
2023-03-12T16:38:57.281Z,35.50
2023-03-12T16:41:24.607Z,32.77
2023-03-12T16:43:53.749Z,30.27
2023-03-12T16:46:21.113Z,33.77
2023-03-12T16:48:52.795Z,26.47
2023-03-12T16:51:22.096Z,30.80
2023-03-12T16:53:58.485Z,21.70
2023-03-12T16:56:32.221Z,24.40
2023-03-12T16:59:00.068Z,33.87
2023-03-12T17:01:29.071Z,36.93
2023-03-12T17:03:55.911Z,34.63
2023-03-12T17:06:24.068Z,39.03
2023-03-12T17:08:50.998Z,22.57
2023-03-12T17:11:22.570Z,29.93
2023-03-12T17:13:51.486Z,33.43
2023-03-12T17:16:18.134Z,21.87
2023-03-12T17:18:44.715Z,50.63
2023-03-12T17:21:13.115Z,32.60
2023-03-12T17:23:39.841Z,44.33
2023-03-12T17:26:06.630Z,23.27
2023-03-12T17:28:33.177Z,38.63
2023-03-12T17:30:59.744Z,29.53
2023-03-12T17:33:26.985Z,37.37
2023-03-12T17:36:11.684Z,30.53
2023-03-12T17:38:39.578Z,42.50
2023-03-12T17:41:23.368Z,63.60
2023-03-12T17:43:52.542Z,35.10
2023-03-12T17:46:19.338Z,27.67
2023-03-12T17:48:45.973Z,33.30
2023-03-12T17:51:12.643Z,38.00
2023-03-12T17:53:42.528Z,33.50
2023-03-12T17:56:12.483Z,43.80
2023-03-12T17:58:39.237Z,29.33
2023-03-12T18:01:05.896Z,26.57
2023-03-12T18:03:32.623Z,41.60
2023-03-12T18:05:59.254Z,68.43
2023-03-12T18:08:25.937Z,57.27
2023-03-12T18:10:52.530Z,70.70
2023-03-12T18:13:19.387Z,52.97
2023-03-12T18:15:53.098Z,36.43
2023-03-12T18:18:19.940Z,27.27
2023-03-12T18:20:47.634Z,35.80
2023-03-12T18:23:14.520Z,40.70
2023-03-12T18:25:41.168Z,29.23
2023-03-12T18:28:07.822Z,54.17
2023-03-12T18:30:34.526Z,32.93
2023-03-12T18:33:01.205Z,40.20
2023-03-12T18:35:30.266Z,37.97
2023-03-12T18:37:57.142Z,37.63
2023-03-12T18:40:24.172Z,21.07
2023-03-12T18:42:50.931Z,31.40
2023-03-12T18:45:18.736Z,33.03
2023-03-12T18:47:45.460Z,47.37
2023-03-12T18:50:12.389Z,35.70
2023-03-12T18:52:39.075Z,23.67
2023-03-12T18:55:05.838Z,40.57
2023-03-12T18:57:32.492Z,42.77
2023-03-12T18:59:59.688Z,32.30
2023-03-12T19:02:26.534Z,29.03
2023-03-12T19:04:55.912Z,28.50
2023-03-12T19:07:22.857Z,27.13
2023-03-12T19:09:49.713Z,27.40
2023-03-12T19:12:16.300Z,32.20
2023-03-12T19:14:42.965Z,38.37
2023-03-12T19:17:09.713Z,32.67
2023-03-12T19:19:37.402Z,23.47
2023-03-12T19:22:04.728Z,31.33
2023-03-12T19:24:31.451Z,31.37
2023-03-12T19:26:57.994Z,21.07
2023-03-12T19:29:24.694Z,32.13
2023-03-12T19:31:51.329Z,24.87
2023-03-12T19:34:18.099Z,24.67
2023-03-12T19:36:44.844Z,13.83
2023-03-12T19:39:21.087Z,8.53
2023-03-12T19:41:48.618Z,20.13
2023-03-12T19:44:15.221Z,27.90
2023-03-12T19:46:43.166Z,27.17
2023-03-12T19:49:09.985Z,31.77
2023-03-12T19:51:36.636Z,27.90
2023-03-12T19:54:03.333Z,40.17
2023-03-12T19:56:29.892Z,25.37
2023-03-12T19:58:56.489Z,27.20
2023-03-12T20:01:23.108Z,12.93
2023-03-12T20:03:49.741Z,24.37
2023-03-12T20:06:16.475Z,15.80
2023-03-12T20:08:44.586Z,29.93
2023-03-12T20:11:11.214Z,23.23
2023-03-12T20:13:40.839Z,16.03
2023-03-12T20:16:07.753Z,16.17
2023-03-12T20:18:34.616Z,21.17
2023-03-12T20:21:01.123Z,10.13
2023-03-12T20:23:27.826Z,19.17
2023-03-12T20:25:54.518Z,24.03
2023-03-12T20:28:21.067Z,15.23
2023-03-12T20:30:48.662Z,18.30
2023-03-12T20:33:15.685Z,4.97
2023-03-12T20:35:42.329Z,24.47
2023-03-12T20:38:09.313Z,8.10
2023-03-12T20:40:36.032Z,16.20
2023-03-12T20:43:04.797Z,16.77
2023-03-12T20:45:32.743Z,26.17
2023-03-12T20:47:59.718Z,22.20
2023-03-12T20:50:26.735Z,16.80
2023-03-12T20:52:53.624Z,30.03
2023-03-12T20:55:20.612Z,32.60
2023-03-12T20:57:47.185Z,20.23
2023-03-12T21:00:13.876Z,31.37
2023-03-12T21:02:40.525Z,14.73
2023-03-12T21:05:07.641Z,10.13
2023-03-12T21:07:34.336Z,34.07
2023-03-12T21:10:00.933Z,32.27
2023-03-12T21:12:27.511Z,23.97
2023-03-12T21:14:54.088Z,35.23
2023-03-12T21:17:20.858Z,26.60
2023-03-12T21:19:47.571Z,22.20
2023-03-12T21:22:14.721Z,25.60
2023-03-12T21:24:41.427Z,39.83
2023-03-12T21:27:11.557Z,14.80
2023-03-12T21:29:38.107Z,14.73
2023-03-12T21:32:04.928Z,10.33
2023-03-12T21:34:32.000Z,14.20
2023-03-12T21:36:58.660Z,23.00
2023-03-12T21:39:27.362Z,22.43
2023-03-12T21:41:53.953Z,14.40
2023-03-12T21:44:20.561Z,21.07
2023-03-12T21:46:47.150Z,20.73
2023-03-12T21:49:14.198Z,6.73
2023-03-12T21:51:40.745Z,21.30
2023-03-12T21:54:07.892Z,15.23
2023-03-12T21:56:34.502Z,30.73
2023-03-12T21:59:01.218Z,24.40
2023-03-12T22:01:28.015Z,17.70
2023-03-12T22:03:54.634Z,8.50
2023-03-12T22:06:21.410Z,8.03
2023-03-12T22:08:52.316Z,22.40
2023-03-12T22:11:19.070Z,17.33
2023-03-12T22:13:45.608Z,16.37
2023-03-12T22:16:12.889Z,14.63
2023-03-12T22:18:41.044Z,6.63
2023-03-12T22:21:08.064Z,18.27
2023-03-12T22:23:36.481Z,14.30
2023-03-12T22:26:04.717Z,20.33
2023-03-12T22:28:31.485Z,31.07
2023-03-12T22:31:02.033Z,22.87
2023-03-12T22:33:29.217Z,16.50
2023-03-12T22:35:56.584Z,17.13
2023-03-12T22:38:24.911Z,15.03
2023-03-12T22:40:54.223Z,21.73
2023-03-12T22:43:25.312Z,29.87
2023-03-12T22:45:54.993Z,19.83
2023-03-12T22:48:21.606Z,12.90
2023-03-12T22:50:54.372Z,20.07
2023-03-12T22:53:21.186Z,14.63
2023-03-12T22:55:55.653Z,21.40
2023-03-12T22:58:22.289Z,19.63
2023-03-12T23:00:49.201Z,12.70
2023-03-12T23:03:15.870Z,24.43
2023-03-12T23:05:42.668Z,24.10
2023-03-12T23:08:10.484Z,10.20
2023-03-12T23:10:37.098Z,12.13
2023-03-12T23:13:04.614Z,10.37
2023-03-12T23:15:40.501Z,13.43
2023-03-12T23:18:08.095Z,14.57
2023-03-12T23:20:34.941Z,15.03
2023-03-12T23:23:01.550Z,16.07
2023-03-12T23:25:28.084Z,9.53
2023-03-12T23:27:54.742Z,20.57
2023-03-12T23:30:21.302Z,14.00
2023-03-12T23:32:47.850Z,15.00
2023-03-12T23:35:16.061Z,5.83
2023-03-12T23:37:42.648Z,10.63
2023-03-12T23:40:11.061Z,17.20
2023-03-12T23:42:37.573Z,15.60
2023-03-12T23:45:04.349Z,14.13
2023-03-12T23:47:30.960Z,21.90
2023-03-12T23:49:57.725Z,5.57
2023-03-12T23:52:26.134Z,15.60
2023-03-12T23:54:52.629Z,17.63
2023-03-12T23:57:19.139Z,18.27
2023-03-12T23:59:45.678Z,7.20
